createdAt,value
2023-03-17T00:01:31.324Z,23.83
2023-03-17T00:05:31.317Z,23.83
2023-03-17T00:09:31.274Z,23.82
2023-03-17T00:13:31.274Z,23.81
2023-03-17T00:17:31.215Z,23.81
2023-03-17T00:21:31.193Z,23.79
2023-03-17T00:25:31.177Z,23.80
2023-03-17T00:29:31.113Z,23.80
2023-03-17T00:33:31.044Z,23.79
2023-03-17T00:37:31.054Z,23.78
2023-03-17T00:41:30.994Z,23.79
2023-03-17T00:45:30.983Z,23.78
2023-03-17T00:49:30.904Z,23.77
2023-03-17T00:53:30.903Z,23.75
2023-03-17T00:57:30.874Z,23.75
2023-03-17T01:01:30.794Z,23.74
2023-03-17T01:05:30.946Z,23.73
2023-03-17T01:09:30.749Z,23.72
2023-03-17T01:13:30.729Z,23.72
2023-03-17T01:17:30.686Z,23.72
2023-03-17T01:21:30.624Z,23.71
2023-03-17T01:25:30.607Z,23.71
2023-03-17T01:29:30.572Z,23.71
2023-03-17T01:33:30.559Z,23.70
2023-03-17T01:37:30.528Z,23.69
2023-03-17T01:41:30.458Z,23.70
2023-03-17T01:45:30.461Z,23.68
2023-03-17T01:49:30.400Z,23.67
2023-03-17T01:53:30.391Z,23.67
2023-03-17T01:57:30.321Z,23.67
2023-03-17T02:01:30.319Z,23.67
2023-03-17T02:05:30.265Z,23.66
2023-03-17T02:09:30.227Z,23.65
2023-03-17T02:13:30.202Z,23.65
2023-03-17T02:17:30.188Z,23.63
2023-03-17T02:21:30.108Z,23.63
2023-03-17T02:25:30.114Z,23.63
2023-03-17T02:29:30.030Z,23.63
2023-03-17T02:33:30.048Z,23.62
2023-03-17T02:37:29.974Z,23.62
2023-03-17T02:41:29.970Z,23.61
2023-03-17T02:45:29.945Z,23.60
2023-03-17T02:49:29.867Z,23.61
2023-03-17T02:53:29.835Z,23.59
2023-03-17T02:57:29.840Z,23.60
2023-03-17T03:01:29.941Z,23.59
2023-03-17T03:05:29.845Z,23.58
2023-03-17T03:09:29.769Z,23.58
2023-03-17T03:13:29.730Z,23.57
2023-03-17T03:17:29.704Z,23.57
2023-03-17T03:21:29.650Z,23.56
2023-03-17T03:25:29.642Z,23.56
2023-03-17T03:29:29.600Z,23.55
2023-03-17T03:33:29.565Z,23.53
2023-03-17T03:37:29.551Z,23.52
2023-03-17T03:41:29.477Z,23.51
2023-03-17T03:45:29.441Z,23.51
2023-03-17T03:49:29.424Z,23.50
2023-03-17T03:53:29.456Z,23.49
2023-03-17T03:57:29.385Z,23.50
2023-03-17T04:01:29.337Z,23.48
2023-03-17T04:05:29.316Z,23.47
2023-03-17T04:09:29.300Z,23.46
2023-03-17T04:13:29.274Z,23.46
2023-03-17T04:17:29.248Z,23.47
2023-03-17T04:21:29.202Z,23.45
2023-03-17T04:25:29.127Z,23.44
2023-03-17T04:29:29.120Z,23.43
2023-03-17T04:33:29.097Z,23.43
2023-03-17T04:37:29.053Z,23.41
2023-03-17T04:41:29.002Z,23.42
2023-03-17T04:45:28.982Z,23.40
2023-03-17T04:49:28.940Z,23.39
2023-03-17T04:53:28.914Z,23.39
2023-03-17T04:57:28.887Z,23.39
2023-03-17T05:01:28.904Z,23.38
2023-03-17T05:05:28.797Z,23.37
2023-03-17T05:09:28.823Z,23.36
2023-03-17T05:13:28.721Z,23.35
2023-03-17T05:17:28.739Z,23.35
2023-03-17T05:21:28.841Z,23.35
2023-03-17T05:25:28.901Z,23.34
2023-03-17T05:29:29.041Z,23.34
2023-03-17T05:33:29.114Z,23.33
2023-03-17T05:37:29.248Z,23.33
2023-03-17T05:41:29.343Z,23.35
2023-03-17T05:45:29.464Z,23.37
2023-03-17T05:49:29.557Z,23.38
2023-03-17T05:53:29.656Z,23.40
2023-03-17T05:57:29.753Z,23.40
2023-03-17T06:01:29.820Z,23.39
2023-03-17T06:05:29.891Z,23.40
2023-03-17T06:09:29.993Z,23.41
2023-03-17T06:13:30.073Z,23.42
2023-03-17T06:17:30.205Z,23.43
2023-03-17T06:21:30.304Z,23.45
2023-03-17T06:25:30.706Z,23.46
2023-03-17T06:29:31.079Z,23.48
2023-03-17T06:33:30.473Z,23.49
2023-03-17T06:37:30.479Z,23.50
2023-03-17T06:41:30.689Z,23.26
2023-03-17T06:45:31.325Z,23.23
2023-03-17T06:49:31.072Z,23.34
2023-03-17T06:53:31.121Z,23.48
2023-03-17T06:57:30.613Z,23.58
2023-03-17T07:01:30.612Z,23.66
2023-03-17T07:05:30.926Z,23.75
2023-03-17T07:09:30.595Z,23.78
2023-03-17T07:13:30.413Z,23.78
2023-03-17T07:17:30.377Z,23.81
2023-03-17T07:21:30.384Z,23.85
2023-03-17T07:25:30.653Z,23.90
2023-03-17T07:29:30.597Z,23.93
2023-03-17T07:33:30.299Z,23.96
2023-03-17T07:37:30.284Z,23.98
2023-03-17T07:41:30.525Z,24.01
2023-03-17T07:45:31.428Z,24.04
2023-03-17T07:49:41.274Z,23.69
2023-03-17T07:53:31.752Z,22.05
2023-03-17T07:57:31.143Z,22.13
2023-03-17T08:01:30.964Z,22.45
2023-03-17T08:05:31.004Z,22.73
2023-03-17T08:09:31.627Z,23.00
2023-03-17T08:13:31.344Z,23.22
2023-03-17T08:17:31.513Z,23.39
2023-03-17T08:21:31.583Z,23.53
2023-03-17T08:25:31.464Z,23.63
2023-03-17T08:29:31.435Z,23.72
2023-03-17T08:33:31.408Z,23.79
2023-03-17T08:37:31.615Z,23.87
2023-03-17T08:41:31.624Z,23.91
2023-03-17T08:45:31.922Z,23.93
2023-03-17T08:49:31.265Z,23.93
2023-03-17T08:53:31.621Z,23.82
2023-03-17T08:57:31.165Z,23.64
2023-03-17T09:01:31.688Z,23.52
2023-03-17T09:05:31.277Z,23.48
2023-03-17T09:09:31.115Z,23.54
2023-03-17T09:13:31.042Z,23.61
2023-03-17T09:17:31.023Z,23.69
2023-03-17T09:21:30.972Z,23.78
2023-03-17T09:25:30.967Z,23.84
2023-03-17T09:29:30.935Z,23.89
2023-03-17T09:33:30.906Z,23.94
2023-03-17T09:37:31.152Z,23.98
2023-03-17T09:41:30.873Z,24.04
2023-03-17T09:45:31.134Z,24.11
2023-03-17T09:49:31.147Z,24.22
2023-03-17T09:53:31.139Z,24.33
2023-03-17T09:57:31.156Z,24.43
2023-03-17T10:01:30.675Z,24.50
2023-03-17T10:05:31.172Z,24.58
2023-03-17T10:09:30.772Z,24.65
2023-03-17T10:13:30.850Z,24.71
2023-03-17T10:17:30.987Z,24.77
2023-03-17T10:21:31.067Z,24.83
2023-03-17T10:25:31.653Z,24.91
2023-03-17T10:29:31.192Z,24.96
2023-03-17T10:33:31.259Z,24.99
2023-03-17T10:37:31.267Z,25.04
2023-03-17T10:41:31.732Z,25.08
2023-03-17T10:45:31.677Z,25.12
2023-03-17T10:49:31.231Z,25.15
2023-03-17T10:53:31.687Z,25.14
2023-03-17T10:57:31.651Z,25.08
2023-03-17T11:01:31.359Z,25.07
2023-03-17T11:05:31.682Z,25.03
2023-03-17T11:09:31.458Z,24.99
2023-03-17T11:13:31.658Z,24.95
2023-03-17T11:17:31.676Z,24.93
2023-03-17T11:21:31.773Z,24.91
2023-03-17T11:25:31.855Z,24.90
2023-03-17T11:29:31.948Z,24.89
2023-03-17T11:33:32.186Z,24.89
2023-03-17T11:37:32.702Z,24.48
2023-03-17T11:41:32.298Z,23.79
2023-03-17T11:45:32.707Z,23.90
2023-03-17T11:49:32.678Z,24.01
2023-03-17T11:53:32.678Z,24.23
2023-03-17T11:57:32.372Z,24.46
2023-03-17T12:01:32.283Z,24.69
2023-03-17T12:05:32.226Z,24.87
2023-03-17T12:09:32.717Z,25.01
2023-03-17T12:13:32.170Z,25.15
2023-03-17T12:17:32.188Z,25.27
2023-03-17T12:21:32.090Z,25.38
2023-03-17T12:25:32.218Z,25.46
2023-03-17T12:29:32.215Z,25.57
2023-03-17T12:33:32.015Z,25.65
2023-03-17T12:37:32.210Z,25.75
2023-03-17T12:41:32.147Z,25.74
2023-03-17T12:45:32.536Z,25.69
2023-03-17T12:49:32.072Z,25.55
2023-03-17T12:53:32.001Z,25.34
2023-03-17T12:57:31.961Z,25.08
2023-03-17T13:01:32.001Z,24.96
2023-03-17T13:05:32.322Z,24.87
2023-03-17T13:09:32.069Z,24.75
2023-03-17T13:13:32.198Z,24.75
2023-03-17T13:17:31.824Z,24.78
2023-03-17T13:21:34.617Z,24.85
2023-03-17T13:25:32.210Z,24.94
2023-03-17T13:29:31.802Z,24.99
2023-03-17T13:33:31.682Z,25.05
2023-03-17T13:37:31.657Z,25.12
2023-03-17T13:41:31.632Z,25.22
2023-03-17T13:45:32.008Z,25.29
2023-03-17T13:49:31.555Z,25.32
2023-03-17T13:53:31.554Z,25.34
2023-03-17T13:57:31.543Z,25.40
2023-03-17T14:01:31.445Z,25.44
2023-03-17T14:05:31.583Z,25.47
2023-03-17T14:09:31.393Z,25.51
2023-03-17T14:13:31.332Z,25.52
2023-03-17T14:17:31.325Z,25.54
2023-03-17T14:21:31.261Z,25.58
2023-03-17T14:25:31.383Z,25.59
2023-03-17T14:29:31.321Z,25.55
2023-03-17T14:33:31.488Z,25.60
2023-03-17T14:37:31.491Z,25.66
2023-03-17T14:41:32.879Z,25.70
2023-03-17T14:45:31.750Z,25.74
2023-03-17T14:49:31.727Z,25.77
2023-03-17T14:53:31.724Z,25.81
2023-03-17T14:57:31.687Z,25.84
2023-03-17T15:01:31.659Z,25.89
2023-03-17T15:05:31.898Z,25.93
2023-03-17T15:09:31.608Z,25.95
2023-03-17T15:13:31.522Z,25.98
2023-03-17T15:17:31.527Z,26.01
2023-03-17T15:21:31.463Z,26.00
2023-03-17T15:25:31.448Z,26.02
2023-03-17T15:29:31.383Z,26.01
2023-03-17T15:33:31.372Z,25.98
2023-03-17T15:37:31.334Z,25.96
2023-03-17T15:41:31.379Z,25.92
2023-03-17T15:45:31.800Z,25.86
2023-03-17T15:49:31.726Z,25.83
2023-03-17T15:53:31.904Z,25.81
2023-03-17T15:57:32.104Z,25.79
2023-03-17T16:01:32.487Z,25.77
2023-03-17T16:05:32.553Z,25.76
2023-03-17T16:09:32.765Z,25.75
2023-03-17T16:13:32.956Z,25.74
2023-03-17T16:17:33.172Z,25.72
2023-03-17T16:21:33.415Z,25.67
2023-03-17T16:25:33.349Z,25.63
2023-03-17T16:29:33.331Z,25.59
2023-03-17T16:33:33.285Z,25.55
2023-03-17T16:37:33.256Z,25.50
2023-03-17T16:41:33.228Z,25.47
2023-03-17T16:45:33.162Z,25.44
2023-03-17T16:49:33.168Z,25.39
2023-03-17T16:53:33.116Z,25.34
2023-03-17T16:57:33.092Z,25.29
2023-03-17T17:01:33.090Z,25.27
2023-03-17T17:05:33.047Z,25.23
2023-03-17T17:09:32.977Z,25.20
2023-03-17T17:13:32.946Z,25.16
2023-03-17T17:17:32.902Z,25.14
2023-03-17T17:21:32.954Z,25.10
2023-03-17T17:25:33.288Z,25.07
2023-03-17T17:29:32.816Z,25.05
2023-03-17T17:33:32.780Z,25.02
2023-03-17T17:37:32.776Z,24.99
2023-03-17T17:41:32.787Z,24.99
2023-03-17T17:45:32.683Z,24.96
2023-03-17T17:49:32.734Z,24.94
2023-03-17T17:53:32.808Z,24.93
2023-03-17T17:57:32.879Z,24.90
2023-03-17T18:01:33.020Z,24.89
2023-03-17T18:05:33.036Z,24.88
2023-03-17T18:09:33.107Z,24.85
2023-03-17T18:13:33.192Z,24.84
2023-03-17T18:17:33.268Z,24.82
2023-03-17T18:21:33.363Z,24.81
2023-03-17T18:25:33.478Z,24.79
2023-03-17T18:29:33.614Z,24.78
2023-03-17T18:33:33.699Z,24.77
2023-03-17T18:37:33.771Z,24.76
2023-03-17T18:41:33.877Z,24.74
2023-03-17T18:45:34.120Z,24.73
2023-03-17T18:49:34.153Z,24.71
2023-03-17T18:53:34.281Z,24.70
2023-03-17T18:57:34.384Z,24.69
2023-03-17T19:01:34.534Z,24.67
2023-03-17T19:05:34.645Z,24.67
2023-03-17T19:09:34.742Z,24.65
2023-03-17T19:13:35.395Z,24.64
2023-03-17T19:17:35.032Z,24.64
2023-03-17T19:21:35.173Z,24.62
2023-03-17T19:25:35.381Z,24.62
2023-03-17T19:29:35.468Z,24.60
2023-03-17T19:33:35.589Z,24.59
2023-03-17T19:37:35.714Z,24.58
2023-03-17T19:41:35.846Z,24.57
2023-03-17T19:45:36.004Z,24.56
2023-03-17T19:49:36.164Z,24.55
2023-03-17T19:53:36.299Z,24.54
2023-03-17T19:57:36.435Z,24.54
2023-03-17T20:01:36.642Z,24.53
2023-03-17T20:05:36.728Z,24.53
2023-03-17T20:09:36.856Z,24.51
2023-03-17T20:13:36.997Z,24.51
2023-03-17T20:17:37.174Z,24.49
2023-03-17T20:21:37.285Z,24.48
2023-03-17T20:25:37.444Z,24.48
2023-03-17T20:29:37.611Z,24.47
2023-03-17T20:33:37.760Z,24.46
2023-03-17T20:37:37.913Z,24.45
2023-03-17T20:41:38.066Z,24.45
2023-03-17T20:45:38.211Z,24.44
2023-03-17T20:49:38.405Z,24.42
2023-03-17T20:53:38.545Z,24.42
2023-03-17T20:57:38.730Z,24.42
2023-03-17T21:01:38.957Z,24.40
2023-03-17T21:05:39.009Z,24.40
2023-03-17T21:09:39.180Z,24.39
2023-03-17T21:13:39.294Z,24.38
2023-03-17T21:17:39.461Z,24.38
2023-03-17T21:21:39.644Z,24.38
2023-03-17T21:25:39.812Z,24.37
2023-03-17T21:29:39.988Z,24.36
2023-03-17T21:33:40.159Z,24.36
2023-03-17T21:37:40.356Z,24.34
2023-03-17T21:41:40.538Z,24.34
2023-03-17T21:45:40.735Z,24.34
2023-03-17T21:49:40.937Z,24.33
2023-03-17T21:53:41.106Z,24.33
2023-03-17T21:57:41.321Z,24.31
2023-03-17T22:01:41.673Z,24.31
2023-03-17T22:05:41.680Z,24.30
2023-03-17T22:09:41.899Z,24.30
2023-03-17T22:13:42.874Z,24.30
2023-03-17T22:17:42.255Z,24.29
2023-03-17T22:21:42.431Z,24.29
2023-03-17T22:25:42.630Z,24.28
2023-03-17T22:29:42.870Z,24.27
2023-03-17T22:33:43.061Z,24.27
2023-03-17T22:37:43.273Z,24.27
2023-03-17T22:41:43.448Z,24.27
2023-03-17T22:45:43.536Z,24.25
2023-03-17T22:49:43.397Z,24.24
2023-03-17T22:53:43.346Z,24.24
2023-03-17T22:57:43.297Z,24.24
2023-03-17T23:01:43.448Z,24.23
2023-03-17T23:05:43.228Z,24.22
2023-03-17T23:09:43.226Z,24.22
2023-03-17T23:13:43.183Z,24.22
2023-03-17T23:17:43.156Z,24.21
2023-03-17T23:21:43.250Z,24.21
2023-03-17T23:25:43.218Z,24.20
2023-03-17T23:29:43.195Z,24.20
2023-03-17T23:33:43.156Z,24.20
2023-03-17T23:37:43.142Z,24.20
2023-03-17T23:41:43.077Z,24.20
2023-03-17T23:45:43.024Z,24.19
2023-03-17T23:49:43.034Z,24.18
2023-03-17T23:53:42.983Z,24.18
2023-03-17T23:57:42.930Z,24.17
